• Join FlightAware (Why Join?)
  • Login
  • US Flag GB Flag 
05:27 EDT


 

Airport Tracker/Info


-or-


 

Live Flight TrackerFlight Track Log ✈ RSP60 ✈ 23-Apr-2013 ✈ KLBF - KLAS

Flight Track Log - Related Links

Times and Time Zones

All times are in EDT time to prevent confusion due to time zone crossing. See the RSP60 flight status page for this flight to view local times or setup timezone preferences in your user account.

Time Position Orientation Groundspeed Altitude Reporting Facility
EDT Latitude Longitude Course Direction KTS MPH feet Rate Location/Type
16:09 40.8896 -101.3249 252° West  Level FlightAware Approximate
16:10 40.8543 -101.4334 245° Southwest  Level FlightAware Approximate
16:11 40.8168 -101.5406 245° Southwest  Level FlightAware Approximate
16:12 40.7792 -101.6478 245° Southwest  Level FlightAware Approximate
16:13 40.7360 -101.7510 239° Southwest  Level FlightAware Approximate
16:13 41.1153 -100.7514 245° Southwest 192 221 9,800  Level Denver Center
16:14 40.6900 -101.8521 239° Southwest  Level FlightAware Approximate
16:14 41.0753 -100.7997 222° Southwest 203 234 13,800  Level Denver Center
16:15 40.6564 -101.9611 249° West  Level FlightAware Approximate
16:15 41.0439 -100.8817 243° Southwest 224 258 17,700  Level Denver Center
16:16 40.6249 -102.0713 249° West  Level FlightAware Approximate
16:16 41.0175 -100.9592 246° West 240 276 20,800  Level Denver Center
16:17 40.5808 -102.1731 242° Southwest  Level FlightAware Approximate
16:17 40.9853 -101.0483 244° Southwest 240 276 24,700  Level Denver Center
16:18 40.9575 -101.1264 245° Southwest 244 281 27,200 2,460 Climbing Denver Center
16:19 40.9244 -101.2203 245° Southwest 252 290 29,900 1,800 Climbing Denver Center
16:20 40.8942 -101.3042 244° Southwest 264 304 31,000 780 Climbing Denver Center
16:21 40.8542 -101.4175 245° Southwest 307 353 31,500 1,020 Climbing Denver Center
16:22 40.8200 -101.5139 245° Southwest 305 351 33,400 1,860 Climbing Denver Center
16:23 40.7764 -101.6347 245° Southwest 285 328 35,800 1,200 Climbing Denver Center
16:24 40.7444 -101.7231 245° Southwest 280 322 36,000 540 Climbing Denver Center
16:26 40.6876 -101.8567 241° Southwest  Level FlightAware Approximate
16:26 40.6708 -101.9281 241° Southwest 298 343 37,500  Level Denver Center
16:27 40.6303 -102.0411 245° Southwest 306 352 38,300 780 Climbing Denver Center
16:28 40.5936 -102.1378 243° Southwest 306 352 39,100 780 Climbing Denver Center
16:29 40.5528 -102.2489 244° Southwest 302 348 39,900 660 Climbing Denver Center
16:30 40.5186 -102.3436 245° Southwest 301 346 40,500 480 Climbing Denver Center
16:31 40.4828 -102.4400 244° Southwest 305 351 41,000 480 Climbing Denver Center
16:32 40.4419 -102.5522 244° Southwest 308 354 41,500 420 Climbing Denver Center
16:33 40.4128 -102.6317 244° Southwest 305 351 41,900 480 Climbing Denver Center
16:35 40.3664 -102.7536 243° Southwest 305 351 42,600 540 Climbing Denver Center
16:36 40.3292 -102.8531 244° Southwest 304 350 43,100 420 Climbing Denver Center
16:37 40.2992 -102.9358 245° Southwest 300 345 43,500 480 Climbing Denver Center
16:38 40.2553 -103.0472 243° Southwest 292 336 44,100 540 Climbing Denver Center
16:39 40.2142 -103.1589 244° Southwest 289 333 44,700 420 Climbing Denver Center
16:40 40.1786 -103.2511 243° Southwest 282 325 45,000 120 Climbing Denver Center
16:41 40.1436 -103.3450 244° Southwest 286 329 45,000  Level Denver Center
16:42 40.1069 -103.4414 244° Southwest 291 335 45,000  Level Denver Center
16:43 40.0683 -103.5414 243° Southwest 302 348 45,000  Level Denver Center
16:44 40.0306 -103.6411 244° Southwest 304 350 45,000  Level Denver Center
16:45 39.9911 -103.7419 243° Southwest 308 354 45,000  Level Denver Center
16:46 39.9522 -103.8464 244° Southwest 316 364 45,000  Level Denver Center
16:47 39.9183 -103.9317 243° Southwest 314 361 45,000  Level Denver Center
16:48 39.8725 -104.0514 244° Southwest 314 361 45,000  Level Denver Center
16:49 39.8247 -104.1714 243° Southwest 315 362 45,000  Level Denver Center
16:50 39.7847 -104.2747 243° Southwest 317 365 45,000  Level Denver Center
16:51 39.7433 -104.3792 243° Southwest 322 371 45,000  Level Denver Center
16:52 39.7022 -104.4833 243° Southwest 322 371 45,000  Level Denver Center
16:53 39.6500 -104.6153 243° Southwest 329 379 45,000  Level Denver Center
16:54 39.6075 -104.7206 242° Southwest 330 380 45,000  Level Denver Center
16:55 39.5564 -104.8478 243° Southwest 328 377 45,000  Level Denver Center
16:57 39.5150 -104.9511 243° Southwest 322 371 45,000  Level Denver Center
16:58 39.4717 -105.0592 243° Southwest 332 382 45,000  Level Denver Center
16:59 39.4286 -105.1631 242° Southwest 327 376 45,000  Level Denver Center
17:00 39.3803 -105.2844 243° Southwest 320 368 45,000  Level Denver Center
17:01 39.3389 -105.3864 242° Southwest 317 365 45,000  Level Denver Center
17:02 39.2956 -105.4903 242° Southwest 322 371 45,000  Level Denver Center
17:03 39.2539 -105.5925 242° Southwest 320 368 45,000  Level Denver Center
17:04 39.2119 -105.6953 242° Southwest 321 369 45,000  Level Denver Center
17:05 39.1769 -105.7811 242° Southwest 325 374 45,000  Level Denver Center
17:06 39.1264 -105.9028 242° Southwest 325 374 45,000  Level Denver Center
17:07 39.0847 -106.0050 242° Southwest 321 369 45,000  Level Denver Center
17:08 39.0419 -106.1064 242° Southwest 320 368 45,000  Level Denver Center
17:09 38.9969 -106.2147 242° Southwest 324 373 45,000  Level Denver Center
17:10 38.9492 -106.3286 242° Southwest 325 374 45,000  Level Denver Center
17:11 38.9083 -106.4267 242° Southwest 325 374 45,000  Level Denver Center
17:12 38.8600 -106.5381 241° Southwest 323 372 45,000  Level Denver Center
17:13 38.8169 -106.6394 241° Southwest 323 372 45,000  Level Denver Center
17:14 38.7650 -106.7617 241° Southwest 325 374 45,000  Level Denver Center
17:15 38.7217 -106.8639 242° Southwest 327 376 45,000  Level Denver Center
17:16 38.6772 -106.9683 241° Southwest 332 382 45,000  Level Denver Center
17:17 38.6333 -107.0711 241° Southwest 330 380 45,000  Level Denver Center
17:18 38.5894 -107.1703 241° Southwest 321 369 45,000  Level Denver Center
17:19 38.5408 -107.2828 241° Southwest 322 371 45,000  Level Denver Center
17:20 38.4981 -107.3831 241° Southwest 330 380 45,000  Level Denver Center
17:21 38.4483 -107.4972 241° Southwest 331 381 45,000  Level Denver Center
17:22 38.4044 -107.5969 241° Southwest 334 384 45,000  Level Denver Center
17:23 38.3556 -107.7094 241° Southwest 328 377 45,000  Level Denver Center
17:25 38.3131 -107.8056 241° Southwest 326 375 45,000  Level Denver Center
17:26 38.2703 -107.9036 241° Southwest 329 379 45,000  Level Denver Center
17:27 38.2197 -108.0172 240° Southwest 330 380 45,000  Level Denver Center
17:28 38.1758 -108.1147 240° Southwest 332 382 45,000  Level Denver Center
17:29 38.1253 -108.2294 241° Southwest 334 384 45,000  Level Denver Center
17:30 38.0811 -108.3269 240° Southwest 332 382 45,000  Level Denver Center
17:31 38.0375 -108.4261 241° Southwest 325 374 45,000  Level Denver Center
17:32 37.9878 -108.5364 240° Southwest 322 371 45,000  Level Denver Center
17:33 37.9439 -108.6306 239° Southwest 325 374 45,000  Level Denver Center
17:34 37.8936 -108.7450 241° Southwest 331 381 45,000  Level Denver Center
17:35 37.8500 -108.8386 239° Southwest 326 375 45,000  Level Denver Center
17:36 37.8025 -108.9536 242° Southwest 329 379 45,000  Level Denver Center
17:37 37.7767 -109.0597 253° West 330 380 45,000 -60 Level Denver Center
17:38 37.7469 -109.1831 253° West 329 379 44,900 -900 Descending Denver Center
17:39 37.7197 -109.2889 252° West 331 381 43,200 -1,140 Descending Denver Center
17:40 37.6931 -109.3981 253° West 338 389 42,600 -1,080 Descending Denver Center
17:41 37.6661 -109.5192 254° West 325 374 41,000 -1,620 Descending Denver Center
17:42 37.6436 -109.6256 255° West 327 376 39,300 -1,500 Descending Denver Center
17:43 37.6150 -109.7500 254° West 331 381 38,000 -660 Descending Denver Center
17:44 37.5931 -109.8525 255° West 323 372 38,000  Level Denver Center
17:45 37.5667 -109.9781 255° West 329 379 38,000  Level Denver Center
17:46 37.5425 -110.0844 254° West 330 380 38,000 -780 Level Denver Center
17:47 37.5156 -110.2064 254° West 327 376 36,500 -1,020 Descending Denver Center
17:48 37.4917 -110.3081 254° West 320 368 36,000 -780 Descending Denver Center
17:49 37.4644 -110.4300 254° West 324 373 35,000 -1,020 Descending Denver Center
17:50 37.4406 -110.5400 255° West 326 375 34,000 -1,020 Descending Denver Center
17:51 37.4142 -110.6506 253° West 331 381 33,000 -1,020 Descending Denver Center
17:52 37.3881 -110.7681 254° West 347 399 32,000 -540 Descending Denver Center
17:53 37.3614 -110.8844 254° West 346 398 32,000  Level Denver Center
17:54 37.3344 -110.9986 253° West 341 392 32,000  Level Denver Center
17:55 37.3019 -111.1367 254° West 345 397 32,000  Level Denver Center
17:56 37.2767 -111.2506 254° West 341 392 32,000  Level Denver Center
17:58 37.2492 -111.3675 254° West 347 399 32,000  Level Denver Center
17:59 37.2222 -111.4839 254° West 347 399 32,000  Level Denver Center
18:00 37.1936 -111.5997 253° West 346 398 32,000  Level Denver Center
18:01 37.1686 -111.7144 255° West 343 395 32,000  Level Denver Center
18:02 37.1350 -111.8511 253° West 341 392 32,000  Level Denver Center
18:03 37.1069 -111.9661 253° West 344 396 32,000 -1,260 Level Denver Center
18:04 37.0803 -112.0717 252° West 328 377 29,400 -2,700 Descending Denver Center
18:05 37.0589 -112.1625 254° West 285 328 26,500 -2,820 Descending Denver Center
18:05 37.0494 -112.1986 252° West 275 316 25,500 -1,800 Descending Los Angeles Center
18:06 37.0247 -112.3047 254° West 323 372 24,000 -780 Descending Los Angeles Center
18:07 36.9975 -112.4144 253° West 329 379 24,000  Level Los Angeles Center
18:08 36.9703 -112.5256 253° West 333 383 24,000  Level Los Angeles Center
18:09 36.9428 -112.6372 253° West 334 384 24,000  Level Los Angeles Center
18:10 36.9100 -112.7714 253° West 335 386 24,000  Level Los Angeles Center
18:11 36.8819 -112.8833 253° West 337 388 24,000  Level Los Angeles Center
18:12 36.8536 -112.9953 252° West 337 388 24,000  Level Los Angeles Center
18:13 36.8372 -113.1089 260° West 331 381 24,000  Level Los Angeles Center
18:14 36.8267 -113.2233 263° West 331 381 24,000  Level Los Angeles Center
18:15 36.8175 -113.3381 264° West 331 381 24,000  Level Los Angeles Center
18:16 36.7939 -113.4508 255° West 343 395 24,000  Level Los Angeles Center
18:18 36.7486 -113.5844 247° West 349 402 24,000  Level Los Angeles Center
18:19 36.7108 -113.6969 247° West 350 403 24,000  Level Los Angeles Center
18:20 36.6631 -113.8308 246° West 352 405 24,000  Level Los Angeles Center
18:21 36.6233 -113.9436 246° West 354 407 24,000 -1,020 Level Los Angeles Center
18:22 36.5856 -114.0547 247° West 351 404 22,000 -2,160 Descending Los Angeles Center
18:23 36.5428 -114.1592 243° Southwest 343 395 19,600 -2,400 Descending Los Angeles Center
18:24 36.4894 -114.2717 239° Southwest 337 388 17,000 -2,640 Descending Los Angeles Center
18:24 36.4742 -114.3161 247° West 338 389 16,000 -2,340 Descending Los Angeles Center
18:25 36.4439 -114.3719 236° Southwest 335 386 14,600 -2,400 Descending Los Angeles Center
18:25 36.4256 -114.4183 244° Southwest 325 374 13,600 -2,160 Descending Los Angeles Center
18:26 36.4008 -114.4664 237° Southwest 319 367 12,400 -1,380 Descending Los Angeles Center
18:26 36.3806 -114.5167 243° Southwest 297 342 12,100 -300 Descending Los Angeles Center
18:27 36.3533 -114.5697 238° Southwest 292 336 12,100 -420 Level Los Angeles Center
18:27 36.3411 -114.6022 245° Southwest 288 331 11,700 -1,080 Descending Los Angeles Center
18:28 36.3131 -114.6561 237° Southwest 289 333 11,000 -1,500 Descending Los Angeles Center
18:28 36.2981 -114.6917 242° Southwest 283 326 10,200 -2,040 Descending Los Angeles Center
18:29 36.2792 -114.7369 243° Southwest 269 310 8,900 -2,100 Descending Los Angeles Center
18:29 36.2700 -114.7706 251° West 254 292 8,100 -780 Descending Los Angeles Center
18:30 36.2492 -114.8125 238° Southwest 247 284 8,100  Level Los Angeles Center
18:30 36.2342 -114.8439 239° Southwest 244 281 8,100 -120 Level Los Angeles Center
18:31 36.2122 -114.8828 235° Southwest 243 280 8,000  Descending Los Angeles Center
18:31 36.1994 -114.9117 241° Southwest 234 269 8,100 60 Climbing Los Angeles Center
18:32 36.1792 -114.9483 236° Southwest 231 266 8,100 -120 Level Los Angeles Center
18:33 36.1644 -114.9792 239° Southwest 220 253 8,000  Descending Los Angeles Center
18:33 36.1486 -115.0119 239° Southwest 219 252 8,100 60 Climbing Los Angeles Center
18:34 36.1294 -115.0467 236° Southwest 221 254 8,100 -120 Level Los Angeles Center
18:34 36.0939 -115.0667 204° Southwest 225 259 8,000  Descending Los Angeles Center
18:35 36.0697 -115.0797 204° Southwest 219 252 8,100 -240 Climbing Los Angeles Center
18:35 36.0369 -115.0942 200° South 218 251 7,800 -1,020 Descending Los Angeles Center
18:36 36.0111 -115.1072 202° Southwest 224 258 7,100 -900 Descending Los Angeles Center
18:36 35.9781 -115.1231 201° Southwest 223 257 6,900 -780 Descending Los Angeles Center
18:37 35.9608 -115.1344 208° Southwest 215 247 6,400 -780 Descending Los Angeles Center
18:37 35.9450 -115.1731 243° Southwest 212 244 6,100 -300 Descending Los Angeles Center
18:38 35.9433 -115.2039 266° West 177 204 6,100 -300 Level Los Angeles Center
18:38 35.9625 -115.2147 335° Northwest 182 209 5,800 -1,080 Descending Los Angeles Center
18:39 35.9781 -115.2139 North 142 163 5,100 -720 Descending Los Angeles Center
18:39 36.0067 -115.2022 18° North 168 193 5,100 -1,320 Level Los Angeles Center
18:40 36.0244 -115.1986 North 154 177 3,700 -2,040 Descending Los Angeles Center
18:41 36.0481 -115.1839 27° Northeast 127 146 3,000 -840 Descending Los Angeles Center
18:42 36.0792 -115.1669 24° Northeast 124 143 2,300 -720 Descending Los Angeles Center
18:44 36.0667 -115.1500 219° Southwest  Level FlightAware Approximate